Time;durP1;ratioP1;P1;durP2;ratioP2;P2;SDS_P1;SDS_P2;PMS_P1;PMS_P2;Temp;Humidity;BMP_temperature;BMP_pressure;BME280_temperature;BME280_humidity;BME280_pressure;Samples;Min_cycle;Max_cycle;Signal;HPM_P1;HPM_P2
2021/10/04 00:02:08;;;;;;;0.80;0.40;;;;;;;13.09;70.99;100582.29;115925;1192;59987;-81
2021/10/04 00:04:35;;;;;;;3.30;0.40;;;;;;;13.05;71.17;100590.90;115709;1192;77488;-81
2021/10/04 00:07:03;;;;;;;2.00;0.50;;;;;;;13.04;71.78;100599.34;115739;1192;59983;-81
2021/10/04 00:09:29;;;;;;;1.50;0.60;;;;;;;13.03;72.23;100612.35;115717;1192;72969;-81
2021/10/04 00:11:56;;;;;;;2.60;0.70;;;;;;;13.00;72.77;100618.84;116095;1193;59604;-82
2021/10/04 00:14:23;;;;;;;1.40;0.70;;;;;;;12.97;73.11;100622.14;115788;1193;59907;-82
2021/10/04 00:16:51;;;;;;;2.60;0.80;;;;;;;12.94;73.64;100618.59;115898;1192;75434;-82
2021/10/04 00:19:18;;;;;;;3.30;0.80;;;;;;;12.91;73.89;100623.81;115747;1193;71076;-81
2021/10/04 00:21:45;;;;;;;1.90;1.00;;;;;;;12.88;74.20;100615.88;115637;1192;74178;-81
2021/10/04 00:24:11;;;;;;;2.00;1.10;;;;;;;12.86;74.34;100617.61;115559;1193;61479;-81
2021/10/04 00:26:38;;;;;;;2.40;1.20;;;;;;;12.85;74.59;100615.56;115752;1192;61066;-82
2021/10/04 00:29:04;;;;;;;2.10;1.00;;;;;;;12.85;74.73;100617.95;115668;1192;61056;-81
2021/10/04 00:31:32;;;;;;;9.30;1.20;;;;;;;12.84;75.00;100629.45;115917;1192;72584;-81
2021/10/04 00:33:59;;;;;;;2.20;0.90;;;;;;;12.82;75.22;100633.23;115647;1192;73968;-82
2021/10/04 00:36:26;;;;;;;1.90;1.00;;;;;;;12.79;75.65;100636.56;115804;1192;60366;-82
2021/10/04 00:38:52;;;;;;;4.90;1.10;;;;;;;12.77;75.73;100643.21;115581;1193;61254;-81
2021/10/04 00:41:19;;;;;;;2.80;1.20;;;;;;;12.76;76.17;100655.81;115737;1192;60440;-81
2021/10/04 00:43:45;;;;;;;2.20;1.00;;;;;;;12.75;76.35;100649.38;115586;1192;71758;-82
2021/10/04 00:46:12;;;;;;;2.30;1.20;;;;;;;12.72;76.41;100648.42;115633;1192;59727;-82
2021/10/04 00:48:39;;;;;;;2.90;1.00;;;;;;;12.69;76.47;100649.61;115754;1193;59907;-82
2021/10/04 00:51:05;;;;;;;2.10;1.10;;;;;;;12.65;76.36;100661.93;115649;1192;59851;-82
2021/10/04 00:53:32;;;;;;;1.80;1.10;;;;;;;12.62;76.14;100653.89;115790;1192;60043;-81
2021/10/04 00:55:58;;;;;;;4.80;1.20;;;;;;;12.59;75.91;100642.55;115588;1193;72664;-81
2021/10/04 00:58:26;;;;;;;1.40;0.70;;;;;;;12.58;75.96;100651.77;115743;1192;73636;-81
2021/10/04 01:00:53;;;;;;;1.30;0.60;;;;;;;12.56;75.75;100655.86;115726;1192;63262;-81
2021/10/04 01:03:20;;;;;;;2.20;1.40;;;;;;;12.55;75.78;100658.36;115815;1192;62640;-81
2021/10/04 01:05:46;;;;;;;3.60;0.70;;;;;;;12.54;75.80;100663.34;115603;1193;76442;-81
2021/10/04 01:08:13;;;;;;;1.10;0.60;;;;;;;12.52;75.75;100668.18;115719;1192;72473;-81
2021/10/04 01:10:40;;;;;;;1.70;0.80;;;;;;;12.50;75.83;100667.42;115647;1186;73674;-81
2021/10/04 01:13:06;;;;;;;1.30;0.60;;;;;;;12.48;76.17;100667.45;115799;1192;59660;-81
2021/10/04 01:15:33;;;;;;;4.80;0.90;;;;;;;12.46;76.15;100663.17;115604;1192;59779;-81
2021/10/04 01:17:59;;;;;;;2.80;0.90;;;;;;;12.46;76.06;100674.71;115794;1192;59916;-81
2021/10/04 01:20:27;;;;;;;3.40;0.90;;;;;;;12.46;76.54;100689.28;115573;1192;59707;-81
2021/10/04 01:22:55;;;;;;;1.50;0.90;;;;;;;12.46;76.60;100693.94;115603;1193;72633;-81
2021/10/04 01:25:23;;;;;;;1.50;0.80;;;;;;;12.45;76.65;100692.59;115871;1192;60456;-81
2021/10/04 01:27:51;;;;;;;2.80;0.80;;;;;;;12.44;76.99;100698.58;115826;1193;61557;-82
2021/10/04 01:30:20;;;;;;;1.60;0.80;;;;;;;12.44;76.68;100695.23;115875;1192;75776;-82
2021/10/04 01:32:48;;;;;;;2.40;0.80;;;;;;;12.45;76.86;100702.66;115615;1193;71293;-82
2021/10/04 01:35:15;;;;;;;3.90;0.90;;;;;;;12.45;76.93;100706.92;115542;1193;73641;-82
2021/10/04 01:37:42;;;;;;;1.70;0.80;;;;;;;12.45;76.83;100711.73;116088;1192;61409;-82
2021/10/04 01:40:10;;;;;;;1.30;0.70;;;;;;;12.44;76.73;100705.10;115681;1192;60067;-82
2021/10/04 01:42:37;;;;;;;1.50;0.80;;;;;;;12.43;76.77;100701.52;115700;1193;76423;-82
2021/10/04 01:45:08;;;;;;;2.10;0.60;;;;;;;12.40;77.03;100722.28;115637;1192;71005;-82
2021/10/04 01:47:36;;;;;;;2.70;0.60;;;;;;;12.38;77.04;100726.11;115643;1193;73582;-82
2021/10/04 01:50:05;;;;;;;2.30;0.60;;;;;;;12.38;76.89;100723.65;115638;1192;62092;-82
2021/10/04 01:52:31;;;;;;;0.80;0.30;;;;;;;12.37;76.84;100719.23;115607;1192;60499;-82
2021/10/04 01:54:58;;;;;;;2.20;0.50;;;;;;;12.36;76.83;100715.61;115811;1192;75555;-82
2021/10/04 01:57:24;;;;;;;2.00;0.80;;;;;;;12.34;76.91;100708.44;115675;1193;59728;-82
2021/10/04 01:59:51;;;;;;;1.30;1.00;;;;;;;12.33;76.94;100719.45;115865;1192;72505;-82
2021/10/04 02:02:17;;;;;;;4.30;0.80;;;;;;;12.31;76.82;100727.82;115849;1192;60124;-81
2021/10/04 02:04:44;;;;;;;2.60;0.80;;;;;;;12.30;76.83;100732.02;115685;1192;59726;-81
2021/10/04 02:07:11;;;;;;;2.30;0.60;;;;;;;12.31;76.82;100732.77;115687;1192;59742;-81
2021/10/04 02:09:37;;;;;;;1.30;0.70;;;;;;;12.32;76.60;100730.70;115850;1192;72169;-82
2021/10/04 02:12:04;;;;;;;1.10;0.60;;;;;;;12.32;76.55;100737.29;115755;1192;72592;-82
2021/10/04 02:14:31;;;;;;;2.50;0.60;;;;;;;12.31;76.71;100736.30;115683;1193;61523;-81
2021/10/04 02:16:57;;;;;;;1.10;0.70;;;;;;;12.30;76.85;100740.36;115776;1193;59689;-81
2021/10/04 02:19:24;;;;;;;1.20;0.70;;;;;;;12.29;76.63;100731.47;115938;1192;59965;-81
2021/10/04 02:21:50;;;;;;;1.00;0.50;;;;;;;12.28;76.86;100724.76;115937;1192;72247;-81
2021/10/04 02:24:17;;;;;;;1.10;0.50;;;;;;;12.29;76.70;100721.83;115684;1192;73814;-80
2021/10/04 02:26:43;;;;;;;2.20;0.50;;;;;;;12.30;76.62;100719.21;115788;1192;59685;-81
2021/10/04 02:29:10;;;;;;;0.70;0.50;;;;;;;12.30;76.73;100714.59;115846;1192;59788;-81
2021/10/04 02:31:36;;;;;;;1.80;0.60;;;;;;;12.30;76.70;100724.04;115735;1192;60544;-81
2021/10/04 02:34:03;;;;;;;1.70;0.70;;;;;;;12.29;76.67;100726.13;115733;1192;59747;-81
2021/10/04 02:36:29;;;;;;;1.70;0.70;;;;;;;12.28;76.76;100724.83;115816;1192;59599;-81
2021/10/04 02:38:56;;;;;;;1.60;0.80;;;;;;;12.27;76.97;100728.42;115795;1192;59876;-82
2021/10/04 02:41:23;;;;;;;1.60;0.80;;;;;;;12.28;76.80;100727.32;115762;1192;60273;-81
2021/10/04 02:43:49;;;;;;;1.20;0.50;;;;;;;12.28;76.93;100729.22;115728;1192;77043;-81
2021/10/04 02:46:16;;;;;;;1.80;0.60;;;;;;;12.29;76.64;100731.64;115621;1193;59744;-81
2021/10/04 02:48:42;;;;;;;1.10;0.80;;;;;;;12.28;76.89;100732.64;115802;1192;71648;-81
2021/10/04 02:51:10;;;;;;;3.00;0.80;;;;;;;12.27;76.83;100726.74;115626;1192;60031;-82
2021/10/04 02:53:36;;;;;;;1.80;0.70;;;;;;;12.26;76.82;100734.27;115641;1192;60068;-82
2021/10/04 02:56:04;;;;;;;1.90;0.70;;;;;;;12.25;77.03;100742.73;115747;1192;76713;-82
2021/10/04 02:58:32;;;;;;;0.80;0.60;;;;;;;12.22;77.18;100744.04;115656;1193;71019;-82
2021/10/04 03:00:58;;;;;;;1.90;0.70;;;;;;;12.19;77.37;100746.02;115607;1192;71928;-81
2021/10/04 03:03:25;;;;;;;2.00;0.60;;;;;;;12.18;77.35;100745.27;115711;1192;60002;-81
2021/10/04 03:05:52;;;;;;;2.90;0.80;;;;;;;12.17;77.57;100749.33;115685;1193;60452;-81
2021/10/04 03:08:18;;;;;;;2.20;0.80;;;;;;;12.16;77.52;100748.95;115772;1192;77031;-82
2021/10/04 03:10:45;;;;;;;3.50;0.70;;;;;;;12.15;77.52;100749.88;115794;1187;59768;-81
2021/10/04 03:13:12;;;;;;;2.20;0.70;;;;;;;12.15;77.55;100752.94;115779;1192;59738;-83
2021/10/04 03:15:39;;;;;;;1.60;0.90;;;;;;;12.16;77.64;100752.60;115564;1193;62061;-83
2021/10/04 03:18:06;;;;;;;1.80;0.60;;;;;;;12.18;77.38;100749.38;115730;1192;60372;-81
2021/10/04 03:20:34;;;;;;;2.00;0.70;;;;;;;12.20;77.29;100744.17;115760;1192;76432;-81
2021/10/04 03:23:00;;;;;;;0.90;0.50;;;;;;;12.21;77.27;100738.95;115756;1192;70913;-81
2021/10/04 03:25:27;;;;;;;2.30;0.70;;;;;;;12.22;77.17;100736.55;115784;1192;72574;-81
2021/10/04 03:27:54;;;;;;;1.80;0.50;;;;;;;12.21;77.33;100738.95;115660;1192;61472;-81
2021/10/04 03:30:20;;;;;;;1.50;0.50;;;;;;;12.21;77.10;100742.80;115702;1193;61965;-81
2021/10/04 03:32:48;;;;;;;1.60;0.50;;;;;;;12.22;76.94;100736.84;115765;1192;75500;-81
2021/10/04 03:35:16;;;;;;;2.60;0.70;;;;;;;12.23;76.87;100734.20;115758;1193;70652;-81
2021/10/04 03:37:43;;;;;;;2.40;0.60;;;;;;;12.26;76.42;100727.22;115774;1192;73682;-81
2021/10/04 03:40:11;;;;;;;2.90;0.60;;;;;;;12.27;76.14;100723.23;115866;1192;60520;-81
2021/10/04 03:42:38;;;;;;;1.00;0.50;;;;;;;12.28;75.80;100730.52;115752;1192;60894;-81
2021/10/04 03:45:06;;;;;;;0.80;0.60;;;;;;;12.29;75.64;100729.81;115617;1193;76424;-81
2021/10/04 03:47:34;;;;;;;1.80;0.80;;;;;;;12.30;75.47;100724.95;115856;1193;71039;-81
2021/10/04 03:50:02;;;;;;;2.10;0.60;;;;;;;12.32;75.45;100731.97;115653;1192;72739;-81
2021/10/04 03:52:29;;;;;;;1.50;0.40;;;;;;;12.33;75.30;100743.31;115780;1192;62382;-81
2021/10/04 03:54:55;;;;;;;2.90;0.70;;;;;;;12.33;75.72;100753.30;115814;1193;59808;-81
2021/10/04 03:57:22;;;;;;;2.90;0.70;;;;;;;12.32;75.78;100765.36;115846;1192;61768;-81
2021/10/04 03:59:49;;;;;;;2.20;0.90;;;;;;;12.30;75.80;100774.38;115899;1192;70985;-81
2021/10/04 04:02:15;;;;;;;1.20;0.50;;;;;;;12.29;75.77;100776.98;115820;1192;59937;-81
2021/10/04 04:04:42;;;;;;;1.90;0.60;;;;;;;12.30;75.69;100782.61;115722;1192;61405;-80
2021/10/04 04:07:08;;;;;;;3.40;0.90;;;;;;;12.30;75.78;100767.64;115762;1193;59824;-80
2021/10/04 04:09:35;;;;;;;0.70;0.40;;;;;;;12.30;75.61;100753.99;115729;1193;76471;-81
2021/10/04 04:12:02;;;;;;;1.50;0.60;;;;;;;12.31;75.66;100766.53;115640;1192;69998;-81
2021/10/04 04:14:29;;;;;;;3.10;0.40;;;;;;;12.31;75.22;100780.63;115631;1192;71608;-81
2021/10/04 04:16:55;;;;;;;1.30;0.50;;;;;;;12.32;75.35;100780.38;115763;1192;61149;-82
2021/10/04 04:19:22;;;;;;;1.10;0.40;;;;;;;12.32;75.22;100777.32;115625;1192;61605;-81
2021/10/04 04:21:49;;;;;;;2.10;0.50;;;;;;;12.33;75.15;100776.84;115768;1192;75420;-82
2021/10/04 04:24:18;;;;;;;3.30;0.40;;;;;;;12.34;75.13;100788.43;115824;1193;60114;-82
2021/10/04 04:26:49;;;;;;;3.60;0.60;;;;;;;12.37;75.15;100806.20;115891;1193;73593;-87
2021/10/04 04:29:22;;;;;;;1.90;0.70;;;;;;;12.37;75.36;100814.30;115767;1192;61362;-74
2021/10/04 04:31:49;;;;;;;1.10;0.50;;;;;;;12.40;75.00;100807.22;115761;1192;60682;-74
2021/10/04 04:34:16;;;;;;;1.20;0.60;;;;;;;12.42;74.84;100808.68;115835;1192;75152;-74
2021/10/04 04:36:43;;;;;;;3.20;0.60;;;;;;;12.44;74.60;100810.29;115818;1192;71745;-74
2021/10/04 04:39:12;;;;;;;2.60;0.70;;;;;;;12.44;74.58;100806.16;115850;1192;59763;-74
2021/10/04 04:41:39;;;;;;;1.00;0.60;;;;;;;12.46;74.68;100808.67;115760;1193;63532;-74
2021/10/04 04:44:05;;;;;;;1.70;0.40;;;;;;;12.49;74.78;100815.98;115837;1192;59670;-74
2021/10/04 04:46:32;;;;;;;2.00;0.70;;;;;;;12.51;74.41;100827.61;115772;1192;76544;-74
2021/10/04 04:48:58;;;;;;;1.10;0.50;;;;;;;12.52;74.40;100822.16;115824;1192;70324;-74
2021/10/04 04:51:25;;;;;;;3.20;0.40;;;;;;;12.50;74.39;100825.15;115875;1192;73912;-74
2021/10/04 04:53:52;;;;;;;2.00;0.60;;;;;;;12.49;74.46;100823.01;115816;1192;60404;-74
2021/10/04 04:56:18;;;;;;;1.90;0.50;;;;;;;12.47;74.17;100827.83;115694;1193;60493;-74
2021/10/04 04:58:45;;;;;;;3.70;0.50;;;;;;;12.45;74.41;100832.52;115827;1192;60349;-74
2021/10/04 05:01:11;;;;;;;0.80;0.40;;;;;;;12.45;74.58;100834.83;115569;1193;59827;-74
2021/10/04 05:03:38;;;;;;;2.10;0.50;;;;;;;12.47;74.13;100844.55;115791;1192;73515;-74
2021/10/04 05:06:05;;;;;;;3.00;0.80;;;;;;;12.47;74.00;100847.63;115723;1192;60014;-74
2021/10/04 05:08:32;;;;;;;5.20;0.70;;;;;;;12.45;74.10;100841.20;115800;1193;59835;-74
2021/10/04 05:10:58;;;;;;;1.50;0.50;;;;;;;12.46;74.09;100837.95;115860;1192;76568;-74
2021/10/04 05:13:25;;;;;;;0.70;0.60;;;;;;;12.47;74.23;100843.20;115890;1192;60048;-74
2021/10/04 05:15:51;;;;;;;2.10;0.50;;;;;;;12.48;74.45;100842.64;115726;1192;59756;-73
2021/10/04 05:18:18;;;;;;;1.80;0.90;;;;;;;12.49;74.31;100838.15;115787;1192;59929;-74
2021/10/04 05:20:45;;;;;;;2.30;0.30;;;;;;;12.50;74.09;100836.13;115745;1192;59940;-74
2021/10/04 05:23:11;;;;;;;2.30;0.80;;;;;;;12.50;73.87;100833.91;115775;1192;60335;-74
2021/10/04 05:25:38;;;;;;;2.50;0.60;;;;;;;12.51;73.97;100830.93;115785;1192;59773;-74
2021/10/04 05:28:04;;;;;;;1.30;0.50;;;;;;;12.49;73.93;100829.63;115804;1192;72605;-74
2021/10/04 05:30:33;;;;;;;2.10;0.70;;;;;;;12.46;73.96;100832.38;115588;1192;60068;-74
2021/10/04 05:33:00;;;;;;;4.00;0.70;;;;;;;12.43;73.97;100835.02;115812;1192;59931;-74
2021/10/04 05:35:27;;;;;;;2.00;0.60;;;;;;;12.40;74.20;100842.33;115822;1192;75031;-74
2021/10/04 05:37:54;;;;;;;2.30;0.50;;;;;;;12.38;74.19;100847.18;115632;1193;71208;-74
2021/10/04 05:40:21;;;;;;;7.30;4.60;;;;;;;12.38;74.30;100840.17;115616;1192;73883;-74
2021/10/04 05:42:47;;;;;;;17.50;10.00;;;;;;;12.38;74.15;100834.48;115778;1192;61856;-75
2021/10/04 05:45:15;;;;;;;1.80;0.80;;;;;;;12.38;74.28;100839.36;115680;1193;59656;-74
2021/10/04 05:47:43;;;;;;;5.20;1.60;;;;;;;12.37;74.35;100838.29;115690;1186;76453;-75
2021/10/04 05:50:10;;;;;;;83.60;49.30;;;;;;;12.37;74.48;100843.20;115625;1193;71095;-74
2021/10/04 05:52:37;;;;;;;5.50;3.30;;;;;;;12.40;74.43;100843.43;115675;1193;73616;-74
2021/10/04 05:55:05;;;;;;;3.40;1.50;;;;;;;12.40;74.24;100845.40;115614;1193;60268;-74
2021/10/04 05:57:32;;;;;;;4.10;1.40;;;;;;;12.41;74.37;100842.89;115836;1193;59603;-74
2021/10/04 05:59:59;;;;;;;33.60;17.40;;;;;;;12.42;74.26;100848.83;115684;1193;74879;-75
2021/10/04 06:02:25;;;;;;;5.40;0.60;;;;;;;12.45;74.04;100852.71;115658;1193;71043;-75
2021/10/04 06:04:52;;;;;;;9.00;4.50;;;;;;;12.47;73.91;100848.81;115685;1193;73334;-75
2021/10/04 06:07:19;;;;;;;3.20;1.10;;;;;;;12.49;73.96;100859.69;115734;1193;59690;-75
2021/10/04 06:09:45;;;;;;;2.60;0.70;;;;;;;12.51;74.06;100861.08;115839;1193;60392;-74
2021/10/04 06:12:12;;;;;;;20.60;10.70;;;;;;;12.52;74.24;100866.48;115683;1193;76441;-75
2021/10/04 06:14:38;;;;;;;5.80;1.30;;;;;;;12.55;74.26;100869.48;115831;1193;70774;-74
2021/10/04 06:17:05;;;;;;;5.80;2.70;;;;;;;12.56;74.04;100868.76;115777;1193;59724;-75
2021/10/04 06:19:32;;;;;;;7.20;3.80;;;;;;;12.58;73.95;100876.04;115636;1193;61928;-74
2021/10/04 06:21:58;;;;;;;2.90;1.60;;;;;;;12.59;74.36;100867.33;115738;1192;59944;-74
2021/10/04 06:24:25;;;;;;;1.20;0.60;;;;;;;12.64;73.87;100871.80;115742;1192;76345;-74
2021/10/04 06:26:51;;;;;;;4.70;0.50;;;;;;;12.66;73.74;100872.41;115712;1192;72061;-74
2021/10/04 06:29:18;;;;;;;1.10;0.50;;;;;;;12.70;73.65;100870.98;115774;1187;73593;-74
2021/10/04 06:31:44;;;;;;;2.10;0.70;;;;;;;12.71;73.61;100874.71;115796;1193;59751;-75
2021/10/04 06:34:11;;;;;;;17.90;9.50;;;;;;;12.71;73.63;100886.19;115856;1193;59595;-75
2021/10/04 06:36:37;;;;;;;21.80;11.60;;;;;;;12.72;73.54;100893.00;115743;1192;60426;-75
2021/10/04 06:39:04;;;;;;;17.10;8.90;;;;;;;12.75;73.62;100903.81;115738;1192;59889;-74
2021/10/04 06:41:31;;;;;;;10.40;5.10;;;;;;;12.79;73.81;100918.73;115724;1193;72519;-74
2021/10/04 06:43:57;;;;;;;5.90;2.10;;;;;;;12.83;73.00;100921.83;115627;1193;62923;-74
2021/10/04 06:46:24;;;;;;;23.10;12.50;;;;;;;12.88;72.92;100917.41;115718;1193;59723;-74
2021/10/04 06:48:50;;;;;;;3.50;1.10;;;;;;;12.93;72.67;100919.08;115814;1192;76998;-74
2021/10/04 06:51:17;;;;;;;1.60;0.60;;;;;;;12.97;72.57;100924.76;115732;1193;60743;-75
2021/10/04 06:53:43;;;;;;;7.80;1.80;;;;;;;13.01;72.57;100927.83;115698;1193;73561;-75
2021/10/04 06:56:10;;;;;;;6.60;2.80;;;;;;;13.04;72.48;100926.96;115648;1194;61299;-75
2021/10/04 06:58:37;;;;;;;33.00;19.00;;;;;;;13.07;72.36;100939.95;115670;1193;59664;-75
2021/10/04 07:01:05;;;;;;;7.10;3.30;;;;;;;13.09;72.25;100954.11;115698;1193;76388;-75
2021/10/04 07:03:31;;;;;;;7.20;2.70;;;;;;;13.10;71.80;100965.45;115712;1193;71001;-75
2021/10/04 07:05:59;;;;;;;5.50;1.60;;;;;;;13.13;71.81;100977.90;115671;1193;73528;-75
2021/10/04 07:08:26;;;;;;;4.40;1.70;;;;;;;13.17;71.88;100981.55;115741;1193;62930;-76
2021/10/04 07:10:52;;;;;;;26.30;15.10;;;;;;;13.21;72.12;100992.36;115650;1193;60294;-75
2021/10/04 07:13:19;;;;;;;9.10;4.40;;;;;;;13.26;71.60;101013.32;115676;1193;75403;-75
2021/10/04 07:15:46;;;;;;;9.70;4.80;;;;;;;13.29;71.34;101014.75;115621;1193;73493;-75
2021/10/04 07:18:13;;;;;;;20.10;10.40;;;;;;;13.31;71.20;101014.89;115686;1193;72519;-75
2021/10/04 07:20:39;;;;;;;17.90;9.60;;;;;;;13.31;71.10;101017.66;115757;1193;60298;-75
2021/10/04 07:23:06;;;;;;;22.00;12.80;;;;;;;13.32;71.21;101013.66;115744;1192;59717;-75
2021/10/04 07:25:34;;;;;;;8.70;3.90;;;;;;;13.33;70.98;101006.50;115807;1192;75416;-75
2021/10/04 07:28:03;;;;;;;10.40;5.20;;;;;;;13.35;71.09;101002.27;115758;1193;72180;-74
2021/10/04 07:30:30;;;;;;;4.80;2.10;;;;;;;13.38;71.05;101004.98;115803;1192;73080;-74
2021/10/04 07:32:57;;;;;;;1.40;0.40;;;;;;;13.40;71.09;101003.48;115698;1193;60059;-75
2021/10/04 07:35:24;;;;;;;8.20;4.90;;;;;;;13.43;71.18;101016.96;115663;1194;61008;-75
2021/10/04 07:37:50;;;;;;;4.90;1.30;;;;;;;13.49;70.88;101022.33;115731;1193;76384;-75
2021/10/04 07:40:18;;;;;;;1.70;0.60;;;;;;;13.51;70.96;101020.60;115731;1193;59717;-75
2021/10/04 07:42:45;;;;;;;1.10;0.50;;;;;;;13.51;70.97;101010.13;115725;1193;73884;-74
2021/10/04 07:45:12;;;;;;;10.60;4.20;;;;;;;13.52;71.14;101001.30;115777;1193;61930;-74
2021/10/04 07:47:39;;;;;;;1.50;0.50;;;;;;;13.55;71.02;101003.10;115904;1192;61298;-74
2021/10/04 07:50:10;;;;;;;14.40;7.40;;;;;;;13.56;71.11;101007.54;115653;1193;75513;-74
2021/10/04 07:52:38;;;;;;;4.80;2.80;;;;;;;13.60;70.96;101013.45;115835;1193;72027;-74
2021/10/04 07:55:05;;;;;;;1.10;0.40;;;;;;;13.67;70.89;101018.85;115741;1192;73612;-74
2021/10/04 07:57:32;;;;;;;51.70;28.80;;;;;;;13.74;70.78;101009.86;115820;1192;60968;-74
2021/10/04 07:59:58;;;;;;;6.30;2.20;;;;;;;13.79;70.34;101007.83;115774;1192;59699;-75
2021/10/04 08:02:25;;;;;;;3.40;1.40;;;;;;;13.83;70.16;101011.37;115689;1193;59616;-75
2021/10/04 08:04:51;;;;;;;1.30;0.50;;;;;;;13.85;70.09;101006.79;115681;1193;71307;-75
2021/10/04 08:07:18;;;;;;;3.00;0.80;;;;;;;13.89;69.88;100997.36;115685;1193;73660;-75
2021/10/04 08:09:45;;;;;;;2.00;0.70;;;;;;;13.96;69.99;100993.11;115766;1192;61028;-75
2021/10/04 08:12:11;;;;;;;16.80;9.10;;;;;;;14.03;69.85;100995.04;115778;1193;59044;-75
2021/10/04 08:14:38;;;;;;;2.40;0.80;;;;;;;14.12;69.52;100997.17;115699;1193;76488;-75
2021/10/04 08:17:05;;;;;;;2.00;0.90;;;;;;;14.19;69.05;101000.70;115671;1193;72065;-74
2021/10/04 08:19:31;;;;;;;2.70;1.10;;;;;;;14.27;68.64;100992.42;115781;1193;71642;-74
2021/10/04 08:21:58;;;;;;;1.90;0.60;;;;;;;14.35;68.95;100983.79;115736;1187;60823;-74
2021/10/04 08:24:25;;;;;;;2.90;0.60;;;;;;;14.43;68.77;100992.33;115775;1192;60213;-74
2021/10/04 08:26:51;;;;;;;2.10;0.80;;;;;;;14.52;68.56;100992.97;115737;1193;75383;-74
2021/10/04 08:29:18;;;;;;;3.30;1.20;;;;;;;14.61;68.39;100996.84;115708;1193;71218;-74
2021/10/04 08:31:44;;;;;;;1.80;0.60;;;;;;;14.68;67.58;100998.66;115810;1193;72721;-74
2021/10/04 08:34:11;;;;;;;1.60;0.60;;;;;;;14.72;67.13;101003.98;115782;1193;61209;-74
2021/10/04 08:36:38;;;;;;;1.70;0.70;;;;;;;14.74;67.11;101014.27;115713;1193;59739;-74
2021/10/04 08:39:06;;;;;;;2.20;0.60;;;;;;;14.76;66.65;101016.74;115745;1192;76547;-74
2021/10/04 08:41:34;;;;;;;3.40;0.70;;;;;;;14.79;66.38;101019.55;115712;1193;72626;-74
2021/10/04 08:44:05;;;;;;;4.40;1.20;;;;;;;14.82;66.20;101021.80;115781;1193;73612;-74
2021/10/04 08:46:37;;;;;;;11.90;6.80;;;;;;;14.83;65.79;101024.15;115696;1193;60298;-74
2021/10/04 08:49:04;;;;;;;11.50;5.30;;;;;;;14.83;65.62;101031.71;115755;1193;61117;-75
2021/10/04 08:51:30;;;;;;;11.30;4.40;;;;;;;14.86;65.72;101027.62;115696;1193;75332;-75
2021/10/04 08:53:57;;;;;;;13.10;7.10;;;;;;;14.89;65.89;101018.80;115660;1187;72177;-74
2021/10/04 08:56:23;;;;;;;4.30;2.10;;;;;;;14.93;65.69;101025.25;115767;1193;73593;-74
2021/10/04 08:58:50;;;;;;;5.40;1.70;;;;;;;14.96;65.55;101030.98;115636;1193;61073;-75
2021/10/04 09:01:21;;;;;;;4.50;2.70;;;;;;;14.99;65.81;101028.95;115763;1193;58983;-75
2021/10/04 09:03:55;;;;;;;1.70;0.60;;;;;;;15.06;66.13;101038.23;115721;1193;77085;-75
2021/10/04 09:06:27;;;;;;;8.00;2.60;;;;;;;15.09;65.27;101050.96;115777;1193;71044;-75
2021/10/04 09:08:59;;;;;;;7.80;3.00;;;;;;;15.13;65.67;101059.20;115864;1192;72755;-75
2021/10/04 09:11:32;;;;;;;3.40;1.10;;;;;;;15.16;65.48;101050.17;115717;1193;61042;-74
2021/10/04 09:14:16;;;;;;;4.00;0.60;;;;;;;15.18;65.31;101047.59;115681;1193;59877;-75
2021/10/04 09:16:57;;;;;;;2.10;0.70;;;;;;;15.20;65.31;101043.05;115694;1193;75635;-75
2021/10/04 09:19:34;;;;;;;2.80;0.80;;;;;;;15.27;65.80;101043.95;115764;1193;71811;-75
2021/10/04 09:22:21;;;;;;;2.50;1.00;;;;;;;15.33;65.36;101039.00;115632;1193;73688;-75
2021/10/04 09:24:48;;;;;;;0.90;0.30;;;;;;;15.37;64.96;101034.63;115832;1193;60441;-73
2021/10/04 09:27:25;;;;;;;3.10;0.60;;;;;;;15.40;64.89;101032.42;115799;1193;59623;-75
2021/10/04 09:29:52;;;;;;;7.00;2.60;;;;;;;15.43;64.86;101034.16;115693;1193;76596;-74
2021/10/04 09:32:29;;;;;;;5.40;2.30;;;;;;;15.39;64.10;101039.73;115718;1193;71981;-75
2021/10/04 09:35:15;;;;;;;9.90;4.00;;;;;;;15.37;64.52;101026.94;115789;1193;72821;-75
2021/10/04 09:37:44;;;;;;;5.90;3.10;;;;;;;15.38;64.57;101023.27;115752;1193;61441;-75
2021/10/04 09:40:30;;;;;;;7.10;3.60;;;;;;;15.41;64.33;101026.79;115622;1193;60302;-74
2021/10/04 09:42:59;;;;;;;2.40;0.70;;;;;;;15.39;63.89;101022.17;115691;1193;74630;-75
2021/10/04 09:45:26;;;;;;;4.80;0.90;;;;;;;15.42;64.37;101018.65;115780;1193;71732;-75
2021/10/04 09:47:55;;;;;;;1.20;0.50;;;;;;;15.42;63.88;101020.08;115578;1193;72522;-75
2021/10/04 09:50:27;;;;;;;8.10;3.20;;;;;;;15.44;64.06;101021.55;115643;1193;60664;-75
2021/10/04 09:52:57;;;;;;;8.30;3.80;;;;;;;15.47;64.08;101017.64;115856;1193;62852;-75
2021/10/04 09:55:34;;;;;;;3.80;1.10;;;;;;;15.50;63.97;101013.33;115673;1193;76414;-75
2021/10/04 09:58:02;;;;;;;4.80;1.60;;;;;;;15.51;63.47;101012.64;115855;1193;72035;-75
2021/10/04 10:00:56;;;;;;;5.10;2.20;;;;;;;15.48;63.37;101009.30;115783;1193;72539;-75
2021/10/04 10:03:30;;;;;;;13.00;6.20;;;;;;;15.46;63.76;101004.89;115689;1193;60075;-75
2021/10/04 10:05:58;;;;;;;1.60;0.70;;;;;;;15.44;63.71;101007.11;115798;1193;60335;-75
2021/10/04 10:08:28;;;;;;;5.30;2.70;;;;;;;15.40;63.74;101007.33;115742;1193;74432;-75
2021/10/04 10:10:57;;;;;;;15.00;8.00;;;;;;;15.38;64.16;101007.86;115783;1193;72467;-76
2021/10/04 10:13:26;;;;;;;4.80;1.20;;;;;;;15.39;64.28;101006.02;115776;1193;73325;-76
2021/10/04 10:16:09;;;;;;;0.90;0.50;;;;;;;15.39;64.13;101012.21;115759;1193;60301;-75
2021/10/04 10:18:49;;;;;;;6.00;2.30;;;;;;;15.37;63.70;101021.01;115770;1193;60190;-75
2021/10/04 10:21:22;;;;;;;11.50;6.20;;;;;;;15.38;63.78;101028.59;115745;1193;75325;-75
2021/10/04 10:23:53;;;;;;;9.90;3.30;;;;;;;15.43;63.31;101040.95;115799;1193;71829;-75
2021/10/04 10:26:32;;;;;;;2.00;0.90;;;;;;;15.54;63.57;101047.02;115703;1193;72598;-75
2021/10/04 10:29:16;;;;;;;2.40;0.50;;;;;;;15.66;62.89;101048.89;115734;1193;61444;-75
2021/10/04 10:31:53;;;;;;;2.40;1.20;;;;;;;15.75;63.10;101053.09;115794;1193;61344;-75
2021/10/04 10:34:42;;;;;;;2.40;0.90;;;;;;;15.82;62.94;101049.79;115799;1192;75400;-75
2021/10/04 10:37:27;;;;;;;5.50;2.10;;;;;;;15.89;62.75;101041.73;115701;1193;71027;-75
2021/10/04 10:39:55;;;;;;;25.90;14.40;;;;;;;15.96;62.67;101042.11;115824;1193;73668;-75
2021/10/04 10:42:57;;;;;;;9.30;4.90;;;;;;;16.00;62.37;101051.89;115738;1193;60090;-74
2021/10/04 10:45:24;;;;;;;12.80;6.00;;;;;;;16.02;62.01;101059.71;115734;1193;59937;-74
2021/10/04 10:47:53;;;;;;;9.40;4.50;;;;;;;16.00;62.09;101054.48;115766;1192;76446;-74
2021/10/04 10:50:29;;;;;;;3.90;1.90;;;;;;;16.00;61.91;101049.25;115690;1193;72547;-75
2021/10/04 10:52:55;;;;;;;4.00;1.50;;;;;;;15.93;61.86;101048.90;115672;1193;73807;-74
2021/10/04 10:55:28;;;;;;;5.50;1.80;;;;;;;15.88;62.28;101044.23;115815;1187;60045;-75
2021/10/04 10:58:01;;;;;;;4.60;0.60;;;;;;;15.87;62.70;101038.56;115709;1193;60324;-75
2021/10/04 11:00:45;;;;;;;3.80;0.70;;;;;;;15.90;63.06;101032.76;115729;1193;74774;-75
2021/10/04 11:03:20;;;;;;;8.60;5.00;;;;;;;15.96;63.29;101033.14;115741;1193;71283;-75
2021/10/04 11:05:46;;;;;;;7.10;2.70;;;;;;;16.00;62.95;101032.36;115789;1193;73575;-75
2021/10/04 11:08:17;;;;;;;2.40;1.30;;;;;;;16.01;62.76;101034.72;115813;1193;59641;-75
2021/10/04 11:11:06;;;;;;;2.80;1.20;;;;;;;15.98;62.73;101040.39;115768;1193;60346;-75
2021/10/04 11:13:34;;;;;;;19.30;7.10;;;;;;;15.96;62.80;101043.15;115678;1193;75641;-75
2021/10/04 11:16:04;;;;;;;9.10;4.60;;;;;;;15.95;63.06;101041.24;115653;1193;72173;-75
2021/10/04 11:18:43;;;;;;;6.70;3.40;;;;;;;15.94;63.11;101041.08;115681;1193;72314;-75
2021/10/04 11:21:16;;;;;;;4.80;1.10;;;;;;;15.97;63.29;101037.02;115658;1193;60344;-75
2021/10/04 11:23:48;;;;;;;2.40;0.50;;;;;;;16.05;63.43;101031.23;115744;1193;60373;-75